CheckWX is a tool to help pilots better visualize weather data.  It is not intended as a substitute for an official pre-flight weather briefing.

21:49:12 UTC

KINW TAF
Winslow-Lindbergh Regional Airport
Winslow, Arizona, USA
KINW 072339Z 0800/0824 25016G26KT P6SM SKC FM080300 24011KT P6SM SKC FM081700 24014G21KT P6SM SKC FM082200 24020G30KT P6SM SKC

Jul-8@
00:00 UTC

Jul-8 @ 00:00 UTC

Jul-8@
03:00 UTC

Jul-8 @ 03:00 UTC

TAF KINW 072339Z 0800/0824 25016G26KT P6SM SKC

Expired

Wind
  • 250° at 16 KTS
  • {Gusting to 26 KTS
Cloud Levels
  • Clear skies

Jul-8@
03:00 UTC

Jul-8 @ 03:00 UTC

Jul-8@
17:00 UTC

Jul-8 @ 17:00 UTC

FM080300 24011KT P6SM SKC

Expired

Wind
  • 240° at 11 KTS
Cloud Levels
  • Clear skies

Jul-8@
17:00 UTC

Jul-8 @ 17:00 UTC

Jul-8@
22:00 UTC

Jul-8 @ 22:00 UTC

FM081700 24014G21KT P6SM SKC

From

From Standard forecast or significant change

Wind
  • 240° at 14 KTS
  • {Gusting to 21 KTS
Cloud Levels
  • Clear skies

Jul-8@
22:00 UTC

Jul-8 @ 22:00 UTC

Jul-9@
00:00 UTC

Jul-9 @ 00:00 UTC

FM082200 24020G30KT P6SM SKC

From

From Standard forecast or significant change

Wind
  • 240° at 20 KTS
  • {Gusting to 30 KTS
Cloud Levels
  • Clear skies